Terminal Aerodrome Forecast
Issued by NWS Miami, FL

Home | Current Version | Previous Version | Text Only | Print | Product List | Glossary On
Versions: 1 2 3 4 5 6 7 8 9 10 11 12 13 14 15 16 17 18 19 20 21 22 23 24 25 26 27 28 29 30 31 32 33 34 35 36 37 38 39 40 41 42 43 44 45 46 47 48 49 50
000
FTUS42 KMFL 241518 AAB
TAFFLL
TAF AMD
KFLL 241518Z 2415/2512 VRB04KT P6SM VCTS SCT025CB BKN050
      TEMPO 2415/2417 VRB15G25KT TSRA BKN025CB
     FM241700 12008KT P6SM SHRA VCTS SCT025CB BKN060
     FM242100 13008KT P6SM VCSH FEW025 BKN060
     FM250100 VRB03KT P6SM SCT250=

USA.gov is the U.S. government's official web portal to all federal, state and local government web resources and services.